createdAt,value
2023-01-20T00:04:09.062Z,2.51
2023-01-20T00:09:17.017Z,2.51
2023-01-20T00:14:25.242Z,2.47
2023-01-20T00:19:28.999Z,2.45
2023-01-20T00:24:43.886Z,2.44
2023-01-20T00:29:56.555Z,2.44
2023-01-20T00:35:11.136Z,2.42
2023-01-20T00:40:15.104Z,2.39
2023-01-20T00:45:20.977Z,2.37
2023-01-20T00:50:44.858Z,2.36
2023-01-20T00:55:51.360Z,2.37
2023-01-20T01:00:58.930Z,2.36
2023-01-20T01:06:21.323Z,2.37
2023-01-20T01:11:27.104Z,2.34
2023-01-20T01:16:30.386Z,2.33
2023-01-20T01:21:33.918Z,2.34
2023-01-20T01:26:37.389Z,2.35
2023-01-20T01:31:40.970Z,2.37
2023-01-20T01:36:44.583Z,2.34
2023-01-20T01:41:51.317Z,2.36
2023-01-20T01:47:06.006Z,2.38
2023-01-20T01:52:10.256Z,2.37
2023-01-20T01:57:16.662Z,2.35
2023-01-20T02:02:23.957Z,2.33
2023-01-20T02:08:14.722Z,2.33
2023-01-20T02:13:25.056Z,2.34
2023-01-20T02:18:41.538Z,2.35
2023-01-20T02:24:52.385Z,2.36
2023-01-20T02:30:38.855Z,2.34
2023-01-20T02:36:05.008Z,2.34
2023-01-20T02:41:21.125Z,2.31
2023-01-20T02:47:12.319Z,2.27
2023-01-20T02:52:23.114Z,2.26
2023-01-20T02:57:41.991Z,2.24
2023-01-20T03:02:51.123Z,2.21
2023-01-20T03:08:16.635Z,2.18
2023-01-20T03:13:32.790Z,2.16
2023-01-20T03:18:38.175Z,2.20
2023-01-20T03:24:00.861Z,2.23
2023-01-20T03:29:09.660Z,2.26
2023-01-20T03:34:19.774Z,2.29
2023-01-20T03:40:01.985Z,2.30
2023-01-20T03:46:06.603Z,2.31
2023-01-20T03:52:04.877Z,2.36
2023-01-20T03:57:53.275Z,2.41
2023-01-20T04:03:21.538Z,2.42
2023-01-20T04:08:33.776Z,2.40
2023-01-20T04:13:40.072Z,2.36
2023-01-20T04:18:47.644Z,2.36
2023-01-20T04:24:36.315Z,2.35
2023-01-20T04:30:00.050Z,2.32
2023-01-20T04:35:06.630Z,2.36
2023-01-20T04:40:14.165Z,2.41
2023-01-20T04:45:17.867Z,2.42
2023-01-20T04:50:21.608Z,2.43
2023-01-20T04:55:26.794Z,2.49
2023-01-20T05:00:58.056Z,2.52
2023-01-20T05:06:01.765Z,2.51
2023-01-20T05:11:05.871Z,2.50
2023-01-20T05:16:13.167Z,2.47
2023-01-20T05:21:19.027Z,2.47
2023-01-20T05:26:26.581Z,2.48
2023-01-20T05:31:43.744Z,2.50
2023-01-20T05:36:59.537Z,2.52
2023-01-20T05:42:03.019Z,2.48
2023-01-20T05:47:06.546Z,2.46
2023-01-20T05:52:32.519Z,2.53
2023-01-20T05:57:39.095Z,2.69
2023-01-20T06:02:42.550Z,2.75
2023-01-20T06:07:46.108Z,2.78
2023-01-20T06:13:05.044Z,2.73
2023-01-20T06:18:12.988Z,2.74
2023-01-20T06:23:28.615Z,2.71
2023-01-20T06:28:36.010Z,2.72
2023-01-20T06:33:49.471Z,2.76
2023-01-20T06:39:15.810Z,2.78
2023-01-20T06:44:21.747Z,2.82
2023-01-20T06:49:33.640Z,2.87
2023-01-20T06:54:37.163Z,2.91
2023-01-20T07:00:00.716Z,2.91
2023-01-20T07:05:23.245Z,2.95
2023-01-20T07:10:32.890Z,2.98
2023-01-20T07:15:36.429Z,3.06
2023-01-20T07:20:40.404Z,3.06
2023-01-20T07:25:44.019Z,3.10
2023-01-20T07:30:47.494Z,3.11
2023-01-20T07:35:53.390Z,3.11
2023-01-20T07:41:06.007Z,3.11
2023-01-20T07:46:15.357Z,3.17
2023-01-20T07:51:19.160Z,3.28
2023-01-20T07:56:28.199Z,3.24
2023-01-20T08:01:33.167Z,3.21
2023-01-20T08:06:36.502Z,3.20
2023-01-20T08:11:50.020Z,3.18
2023-01-20T08:16:53.958Z,3.19
2023-01-20T08:22:19.868Z,3.19
2023-01-20T08:27:23.095Z,3.19
2023-01-20T08:32:26.613Z,3.19
2023-01-20T08:37:33.398Z,3.20
2023-01-20T08:42:38.259Z,3.18
2023-01-20T08:47:46.047Z,3.13
2023-01-20T08:52:49.410Z,3.06
2023-01-20T08:57:55.598Z,3.02
2023-01-20T09:03:02.231Z,3.02
2023-01-20T09:08:05.931Z,3.04
2023-01-20T09:13:09.800Z,3.09
2023-01-20T09:18:13.188Z,3.09
2023-01-20T09:23:26.917Z,3.10
2023-01-20T09:28:49.158Z,3.14
2023-01-20T09:33:56.120Z,3.19
2023-01-20T09:39:21.642Z,3.22
2023-01-20T09:45:06.107Z,3.27
2023-01-20T09:50:39.548Z,3.31
2023-01-20T09:55:54.082Z,3.37
2023-01-20T10:01:44.012Z,3.38
2023-01-20T10:06:55.054Z,3.42
2023-01-20T10:12:17.948Z,3.47
2023-01-20T10:17:28.350Z,3.50
2023-01-20T10:23:00.810Z,3.49
2023-01-20T10:28:21.256Z,3.47
2023-01-20T10:33:32.995Z,3.49
2023-01-20T10:38:48.121Z,3.52
2023-01-20T10:43:51.646Z,3.49
2023-01-20T10:49:21.202Z,3.56
2023-01-20T10:54:51.652Z,3.59
2023-01-20T11:00:00.196Z,3.59
2023-01-20T11:05:43.760Z,3.62
2023-01-20T11:11:01.493Z,3.66
2023-01-20T11:16:29.109Z,3.67
2023-01-20T11:21:37.070Z,3.63
2023-01-20T11:26:40.543Z,3.61
2023-01-20T11:31:58.201Z,3.64
2023-01-20T11:37:28.223Z,3.77
2023-01-20T11:42:45.024Z,3.85
2023-01-20T11:48:22.649Z,3.96
2023-01-20T11:53:41.667Z,4.07
2023-01-20T11:59:40.220Z,4.06
2023-01-20T12:05:31.527Z,3.97
2023-01-20T12:10:47.944Z,3.97
2023-01-20T12:16:04.409Z,3.94
2023-01-20T12:21:37.845Z,3.93
2023-01-20T12:26:43.712Z,3.87
2023-01-20T12:31:57.834Z,3.82
2023-01-20T12:37:42.260Z,3.81
2023-01-20T12:43:18.510Z,3.82
2023-01-20T12:48:34.038Z,3.82
2023-01-20T12:53:56.455Z,3.74
2023-01-20T12:59:35.794Z,3.68
2023-01-20T13:05:09.651Z,3.59
2023-01-20T13:10:34.616Z,3.51
2023-01-20T13:15:45.403Z,3.49
2023-01-20T13:20:49.057Z,3.50
2023-01-20T13:25:53.391Z,3.46
2023-01-20T13:31:01.362Z,3.43
2023-01-20T13:36:16.381Z,3.39
2023-01-20T13:41:52.695Z,3.38
2023-01-20T13:46:56.299Z,3.40
2023-01-20T13:52:03.228Z,3.41
2023-01-20T13:57:44.860Z,3.44
2023-01-20T14:02:50.073Z,3.43
2023-01-20T14:07:53.587Z,3.34
2023-01-20T14:12:57.001Z,3.33
2023-01-20T14:18:01.319Z,3.24
2023-01-20T14:23:39.647Z,3.19
2023-01-20T14:28:55.568Z,3.20
2023-01-20T14:34:03.784Z,3.18
2023-01-20T14:39:20.694Z,3.15
2023-01-20T14:44:26.861Z,3.13
2023-01-20T14:49:36.244Z,3.09
2023-01-20T14:54:44.860Z,2.99
2023-01-20T15:00:11.723Z,2.93
2023-01-20T15:05:36.557Z,2.88
2023-01-20T15:11:45.199Z,2.85
2023-01-20T15:16:50.759Z,2.90
2023-01-20T15:22:21.087Z,2.95
2023-01-20T15:27:31.700Z,2.99
2023-01-20T15:33:25.476Z,2.95
2023-01-20T15:38:33.910Z,2.87
2023-01-20T15:43:42.545Z,2.85
2023-01-20T15:48:51.308Z,2.87
2023-01-20T15:53:59.033Z,2.88
2023-01-20T15:59:02.861Z,2.90
2023-01-20T16:04:10.319Z,2.90
2023-01-20T16:09:37.373Z,2.88
2023-01-20T16:14:41.538Z,2.91
2023-01-20T16:19:45.102Z,2.92
2023-01-20T16:24:49.415Z,2.93
2023-01-20T16:29:53.319Z,2.94
2023-01-20T16:34:56.556Z,2.93
2023-01-20T16:40:00.094Z,2.87
2023-01-20T16:45:03.946Z,2.77
2023-01-20T16:50:07.347Z,2.74
2023-01-20T16:55:13.380Z,2.70
2023-01-20T17:00:18.986Z,2.68
2023-01-20T17:05:25.781Z,2.66
2023-01-20T17:10:32.596Z,2.61
2023-01-20T17:15:37.339Z,2.57
2023-01-20T17:20:40.747Z,2.56
2023-01-20T17:25:43.956Z,2.43
2023-01-20T17:30:47.965Z,2.39
2023-01-20T17:36:04.067Z,2.37
2023-01-20T17:41:08.558Z,2.35
2023-01-20T17:46:31.004Z,2.36
2023-01-20T17:51:34.511Z,2.38
2023-01-20T17:56:38.434Z,2.34
2023-01-20T18:01:42.105Z,2.33
2023-01-20T18:06:45.654Z,2.36
2023-01-20T18:11:49.003Z,2.37
2023-01-20T18:16:53.642Z,2.39
2023-01-20T18:21:56.989Z,2.40
2023-01-20T18:27:00.269Z,2.38
2023-01-20T18:32:04.809Z,2.37
2023-01-20T18:37:08.241Z,2.38
2023-01-20T18:42:11.639Z,2.38
2023-01-20T18:47:15.113Z,2.38
2023-01-20T18:52:19.103Z,2.39
2023-01-20T18:57:25.059Z,2.38
2023-01-20T19:02:28.863Z,2.39
2023-01-20T19:07:35.522Z,2.39
2023-01-20T19:12:41.277Z,2.38
2023-01-20T19:17:44.626Z,2.37
2023-01-20T19:22:48.300Z,2.38
2023-01-20T19:27:51.731Z,2.41
2023-01-20T19:32:55.108Z,2.42
2023-01-20T19:37:58.621Z,2.43
2023-01-20T19:43:42.624Z,2.45
2023-01-20T19:48:46.272Z,2.45
2023-01-20T19:53:53.792Z,2.46
2023-01-20T19:58:58.241Z,2.47
2023-01-20T20:04:13.099Z,2.48
2023-01-20T20:09:21.419Z,2.47
2023-01-20T20:14:27.397Z,2.48
2023-01-20T20:19:30.760Z,2.48
2023-01-20T20:24:34.445Z,2.47
2023-01-20T20:29:37.732Z,2.48
2023-01-20T20:34:41.079Z,2.47
2023-01-20T20:39:44.443Z,2.48
2023-01-20T20:44:47.809Z,2.51
2023-01-20T20:49:51.060Z,2.53
2023-01-20T20:54:56.427Z,2.52
2023-01-20T20:59:59.759Z,2.51
2023-01-20T21:05:03.316Z,2.51
2023-01-20T21:10:07.491Z,2.52
2023-01-20T21:15:34.486Z,2.53
2023-01-20T21:20:37.913Z,2.52
2023-01-20T21:25:41.160Z,2.53
2023-01-20T21:30:44.588Z,2.52
2023-01-20T21:35:48.377Z,2.49
2023-01-20T21:41:01.563Z,2.47
2023-01-20T21:46:05.089Z,2.45
2023-01-20T21:51:30.460Z,2.43
2023-01-20T21:56:33.763Z,2.41
2023-01-20T22:01:37.813Z,2.41
2023-01-20T22:06:44.919Z,2.36
2023-01-20T22:11:49.033Z,2.33
2023-01-20T22:16:52.216Z,2.31
2023-01-20T22:21:59.529Z,2.29
2023-01-20T22:27:03.257Z,2.31
2023-01-20T22:32:06.651Z,2.30
2023-01-20T22:37:09.945Z,2.28
2023-01-20T22:42:13.314Z,2.25
2023-01-20T22:47:16.997Z,2.25
2023-01-20T22:52:20.586Z,2.23
2023-01-20T22:57:24.146Z,2.23
2023-01-20T23:02:30.186Z,2.19
2023-01-20T23:07:35.161Z,2.15
2023-01-20T23:12:38.452Z,2.18
2023-01-20T23:17:41.805Z,2.19
2023-01-20T23:22:45.201Z,2.19
2023-01-20T23:27:48.483Z,2.18
2023-01-20T23:32:51.746Z,2.14
2023-01-20T23:37:55.345Z,2.12
2023-01-20T23:42:58.649Z,2.10
2023-01-20T23:48:05.529Z,2.11
2023-01-20T23:53:24.022Z,2.11
2023-01-20T23:58:27.777Z,2.12
